sensor_id;sensor_type;location;lat;lon;timestamp;temperature;humidity
61841;DHT22;47773;53.174;6.614;2022-12-18T00:01:35;-2.10;99.90
61841;DHT22;47773;53.174;6.614;2022-12-18T00:04:03;-2.10;99.90
61841;DHT22;47773;53.174;6.614;2022-12-18T00:06:34;-2.10;99.90
61841;DHT22;47773;53.174;6.614;2022-12-18T00:09:01;-2.10;99.90
61841;DHT22;47773;53.174;6.614;2022-12-18T00:11:29;-2.20;99.90
61841;DHT22;47773;53.174;6.614;2022-12-18T00:13:56;-2.20;99.90
61841;DHT22;47773;53.174;6.614;2022-12-18T00:16:24;-2.20;99.90
61841;DHT22;47773;53.174;6.614;2022-12-18T00:18:53;-2.20;99.90
61841;DHT22;47773;53.174;6.614;2022-12-18T00:21:19;-2.20;99.90
61841;DHT22;47773;53.174;6.614;2022-12-18T00:23:46;-2.20;99.90
61841;DHT22;47773;53.174;6.614;2022-12-18T00:26:28;-2.20;99.90
61841;DHT22;47773;53.174;6.614;2022-12-18T00:28:54;-2.20;99.90
61841;DHT22;47773;53.174;6.614;2022-12-18T00:31:23;-2.20;99.90
61841;DHT22;47773;53.174;6.614;2022-12-18T00:33:50;-2.30;99.90
61841;DHT22;47773;53.174;6.614;2022-12-18T00:36:21;-2.30;99.90
61841;DHT22;47773;53.174;6.614;2022-12-18T00:38:47;-2.30;99.90
61841;DHT22;47773;53.174;6.614;2022-12-18T00:41:15;-2.30;99.90
61841;DHT22;47773;53.174;6.614;2022-12-18T00:44:02;-2.20;99.90
61841;DHT22;47773;53.174;6.614;2022-12-18T00:46:28;-2.20;99.90
61841;DHT22;47773;53.174;6.614;2022-12-18T00:48:53;-2.20;99.90
61841;DHT22;47773;53.174;6.614;2022-12-18T00:51:20;-2.20;99.90
61841;DHT22;47773;53.174;6.614;2022-12-18T00:53:46;-2.20;99.90
61841;DHT22;47773;53.174;6.614;2022-12-18T00:56:11;-2.20;99.90
61841;DHT22;47773;53.174;6.614;2022-12-18T00:58:37;-2.10;99.90
61841;DHT22;47773;53.174;6.614;2022-12-18T01:01:06;-2.10;99.90
61841;DHT22;47773;53.174;6.614;2022-12-18T01:03:32;-2.20;99.90
61841;DHT22;47773;53.174;6.614;2022-12-18T01:05:58;-2.20;99.90
61841;DHT22;47773;53.174;6.614;2022-12-18T01:08:24;-2.20;99.90
61841;DHT22;47773;53.174;6.614;2022-12-18T01:10:50;-2.30;99.90
61841;DHT22;47773;53.174;6.614;2022-12-18T01:13:16;-2.30;99.90
61841;DHT22;47773;53.174;6.614;2022-12-18T01:15:51;-2.30;99.90
61841;DHT22;47773;53.174;6.614;2022-12-18T01:18:17;-2.30;99.90
61841;DHT22;47773;53.174;6.614;2022-12-18T01:20:42;-2.30;99.90
61841;DHT22;47773;53.174;6.614;2022-12-18T01:23:08;-2.30;99.90
61841;DHT22;47773;53.174;6.614;2022-12-18T01:25:35;-2.30;99.90
61841;DHT22;47773;53.174;6.614;2022-12-18T01:28:01;-2.30;99.90
61841;DHT22;47773;53.174;6.614;2022-12-18T01:30:27;-2.40;99.90
61841;DHT22;47773;53.174;6.614;2022-12-18T01:32:53;-2.40;99.90
61841;DHT22;47773;53.174;6.614;2022-12-18T01:35:19;-2.40;99.90
61841;DHT22;47773;53.174;6.614;2022-12-18T01:37:44;-2.40;99.90
61841;DHT22;47773;53.174;6.614;2022-12-18T01:40:10;-2.50;99.90
61841;DHT22;47773;53.174;6.614;2022-12-18T01:42:36;-2.40;99.90
61841;DHT22;47773;53.174;6.614;2022-12-18T01:48:06;-2.50;99.90
61841;DHT22;47773;53.174;6.614;2022-12-18T01:50:40;-2.40;99.90
61841;DHT22;47773;53.174;6.614;2022-12-18T01:53:22;-2.50;99.90
61841;DHT22;47773;53.174;6.614;2022-12-18T01:55:54;-2.50;99.90
61841;DHT22;47773;53.174;6.614;2022-12-18T01:59:09;-2.50;99.90
61841;DHT22;47773;53.174;6.614;2022-12-18T02:01:10;-2.50;99.90
61841;DHT22;47773;53.174;6.614;2022-12-18T02:03:36;-2.60;99.90
61841;DHT22;47773;53.174;6.614;2022-12-18T02:06:15;-2.60;99.90
61841;DHT22;47773;53.174;6.614;2022-12-18T02:17:18;-2.70;99.90
61841;DHT22;47773;53.174;6.614;2022-12-18T02:19:54;-2.70;99.90
61841;DHT22;47773;53.174;6.614;2022-12-18T02:22:49;-2.70;99.90
61841;DHT22;47773;53.174;6.614;2022-12-18T02:27:41;-2.70;99.90
61841;DHT22;47773;53.174;6.614;2022-12-18T02:30:10;-2.70;99.90
61841;DHT22;47773;53.174;6.614;2022-12-18T02:32:39;-2.80;99.90
61841;DHT22;47773;53.174;6.614;2022-12-18T02:35:13;-2.80;99.90
61841;DHT22;47773;53.174;6.614;2022-12-18T02:37:42;-2.80;99.90
61841;DHT22;47773;53.174;6.614;2022-12-18T02:40:09;-2.80;99.90
61841;DHT22;47773;53.174;6.614;2022-12-18T02:42:36;-2.80;99.90
61841;DHT22;47773;53.174;6.614;2022-12-18T02:45:02;-2.80;99.90
61841;DHT22;47773;53.174;6.614;2022-12-18T02:47:31;-2.80;99.90
61841;DHT22;47773;53.174;6.614;2022-12-18T02:52:35;-2.80;99.90
61841;DHT22;47773;53.174;6.614;2022-12-18T02:58:17;-2.90;99.90
61841;DHT22;47773;53.174;6.614;2022-12-18T03:01:00;-2.90;99.90
61841;DHT22;47773;53.174;6.614;2022-12-18T03:03:36;-2.90;99.90
61841;DHT22;47773;53.174;6.614;2022-12-18T03:06:12;-3.00;99.90
61841;DHT22;47773;53.174;6.614;2022-12-18T03:08:43;-2.90;99.90
61841;DHT22;47773;53.174;6.614;2022-12-18T03:11:11;-2.90;99.90
61841;DHT22;47773;53.174;6.614;2022-12-18T03:13:47;-2.90;99.90
61841;DHT22;47773;53.174;6.614;2022-12-18T03:16:20;-2.90;99.90
61841;DHT22;47773;53.174;6.614;2022-12-18T03:19:04;-2.90;99.90
61841;DHT22;47773;53.174;6.614;2022-12-18T03:21:43;-3.00;99.90
61841;DHT22;47773;53.174;6.614;2022-12-18T03:24:11;-3.00;99.90
61841;DHT22;47773;53.174;6.614;2022-12-18T03:26:40;-3.00;99.90
61841;DHT22;47773;53.174;6.614;2022-12-18T03:29:10;-3.00;99.90
61841;DHT22;47773;53.174;6.614;2022-12-18T03:31:40;-3.00;99.90
61841;DHT22;47773;53.174;6.614;2022-12-18T03:34:14;-3.00;99.90
61841;DHT22;47773;53.174;6.614;2022-12-18T03:36:40;-3.00;99.90
61841;DHT22;47773;53.174;6.614;2022-12-18T03:39:06;-3.00;99.90
61841;DHT22;47773;53.174;6.614;2022-12-18T03:41:37;-3.00;99.90
61841;DHT22;47773;53.174;6.614;2022-12-18T03:44:36;-3.00;99.90
61841;DHT22;47773;53.174;6.614;2022-12-18T03:52:51;-3.00;99.90
61841;DHT22;47773;53.174;6.614;2022-12-18T03:55:18;-3.00;99.90
61841;DHT22;47773;53.174;6.614;2022-12-18T03:57:46;-3.10;99.90
61841;DHT22;47773;53.174;6.614;2022-12-18T04:00:14;-3.10;99.90
61841;DHT22;47773;53.174;6.614;2022-12-18T04:02:45;-3.10;99.90
61841;DHT22;47773;53.174;6.614;2022-12-18T04:05:12;-3.10;99.90
61841;DHT22;47773;53.174;6.614;2022-12-18T04:07:39;-3.10;99.90
61841;DHT22;47773;53.174;6.614;2022-12-18T04:10:07;-3.20;99.90
61841;DHT22;47773;53.174;6.614;2022-12-18T04:12:33;-3.20;99.90
61841;DHT22;47773;53.174;6.614;2022-12-18T04:14:58;-3.30;99.90
61841;DHT22;47773;53.174;6.614;2022-12-18T04:17:24;-3.30;99.90
61841;DHT22;47773;53.174;6.614;2022-12-18T04:19:50;-3.30;99.90
61841;DHT22;47773;53.174;6.614;2022-12-18T04:22:16;-3.30;99.90
61841;DHT22;47773;53.174;6.614;2022-12-18T04:24:42;-3.30;99.90
61841;DHT22;47773;53.174;6.614;2022-12-18T04:27:08;-3.30;99.90
61841;DHT22;47773;53.174;6.614;2022-12-18T04:29:34;-3.30;99.90
61841;DHT22;47773;53.174;6.614;2022-12-18T04:32:00;-3.30;99.90
61841;DHT22;47773;53.174;6.614;2022-12-18T04:34:25;-3.40;99.90
61841;DHT22;47773;53.174;6.614;2022-12-18T04:36:51;-3.40;99.90
61841;DHT22;47773;53.174;6.614;2022-12-18T04:39:17;-3.30;99.90
61841;DHT22;47773;53.174;6.614;2022-12-18T04:41:43;-3.40;99.90
61841;DHT22;47773;53.174;6.614;2022-12-18T04:44:09;-3.40;99.90
61841;DHT22;47773;53.174;6.614;2022-12-18T04:46:35;-3.40;99.90
61841;DHT22;47773;53.174;6.614;2022-12-18T04:49:00;-3.30;99.90
61841;DHT22;47773;53.174;6.614;2022-12-18T04:51:26;-3.40;99.90
61841;DHT22;47773;53.174;6.614;2022-12-18T04:53:52;-3.40;99.90
61841;DHT22;47773;53.174;6.614;2022-12-18T04:56:18;-3.40;99.90
61841;DHT22;47773;53.174;6.614;2022-12-18T04:58:44;-3.40;99.90
61841;DHT22;47773;53.174;6.614;2022-12-18T05:01:11;-3.40;99.90
61841;DHT22;47773;53.174;6.614;2022-12-18T05:03:37;-3.40;99.90
61841;DHT22;47773;53.174;6.614;2022-12-18T05:06:04;-3.50;99.90
61841;DHT22;47773;53.174;6.614;2022-12-18T05:08:30;-3.50;99.90
61841;DHT22;47773;53.174;6.614;2022-12-18T05:11:09;-3.40;99.90
61841;DHT22;47773;53.174;6.614;2022-12-18T05:13:35;-3.50;99.90
61841;DHT22;47773;53.174;6.614;2022-12-18T05:16:02;-3.50;99.90
61841;DHT22;47773;53.174;6.614;2022-12-18T05:18:28;-3.50;99.90
61841;DHT22;47773;53.174;6.614;2022-12-18T05:20:54;-3.50;99.90
61841;DHT22;47773;53.174;6.614;2022-12-18T05:23:21;-3.50;99.90
61841;DHT22;47773;53.174;6.614;2022-12-18T05:25:59;-3.50;99.90
61841;DHT22;47773;53.174;6.614;2022-12-18T05:28:27;-3.50;99.90
61841;DHT22;47773;53.174;6.614;2022-12-18T05:30:59;-3.50;99.90
61841;DHT22;47773;53.174;6.614;2022-12-18T05:33:27;-3.50;99.90
61841;DHT22;47773;53.174;6.614;2022-12-18T05:35:55;-3.50;99.90
61841;DHT22;47773;53.174;6.614;2022-12-18T05:38:22;-3.50;99.90
61841;DHT22;47773;53.174;6.614;2022-12-18T05:40:49;-3.60;99.90
61841;DHT22;47773;53.174;6.614;2022-12-18T05:43:15;-3.60;99.90
61841;DHT22;47773;53.174;6.614;2022-12-18T05:45:41;-3.60;99.90
61841;DHT22;47773;53.174;6.614;2022-12-18T05:48:07;-3.60;99.90
61841;DHT22;47773;53.174;6.614;2022-12-18T05:50:38;-3.60;99.90
61841;DHT22;47773;53.174;6.614;2022-12-18T05:53:04;-3.60;99.90
61841;DHT22;47773;53.174;6.614;2022-12-18T05:55:37;-3.60;99.90
61841;DHT22;47773;53.174;6.614;2022-12-18T05:58:05;-3.60;99.90
61841;DHT22;47773;53.174;6.614;2022-12-18T06:00:32;-3.50;99.90
61841;DHT22;47773;53.174;6.614;2022-12-18T06:03:00;-3.60;99.90
61841;DHT22;47773;53.174;6.614;2022-12-18T06:05:26;-3.60;99.90
61841;DHT22;47773;53.174;6.614;2022-12-18T06:07:52;-3.60;99.90
61841;DHT22;47773;53.174;6.614;2022-12-18T06:10:18;-3.50;99.90
61841;DHT22;47773;53.174;6.614;2022-12-18T06:12:43;-3.60;99.90
61841;DHT22;47773;53.174;6.614;2022-12-18T06:15:10;-3.60;99.90
61841;DHT22;47773;53.174;6.614;2022-12-18T06:17:36;-3.60;99.90
61841;DHT22;47773;53.174;6.614;2022-12-18T06:20:03;-3.60;99.90
61841;DHT22;47773;53.174;6.614;2022-12-18T06:22:31;-3.60;99.90
61841;DHT22;47773;53.174;6.614;2022-12-18T06:24:57;-3.60;99.90
61841;DHT22;47773;53.174;6.614;2022-12-18T06:27:22;-3.60;99.90
61841;DHT22;47773;53.174;6.614;2022-12-18T06:29:48;-3.60;99.90
61841;DHT22;47773;53.174;6.614;2022-12-18T06:32:14;-3.70;99.90
61841;DHT22;47773;53.174;6.614;2022-12-18T06:34:40;-3.70;99.90
61841;DHT22;47773;53.174;6.614;2022-12-18T06:37:06;-3.70;99.90
61841;DHT22;47773;53.174;6.614;2022-12-18T06:39:31;-3.80;99.90
61841;DHT22;47773;53.174;6.614;2022-12-18T06:41:57;-3.80;99.90
61841;DHT22;47773;53.174;6.614;2022-12-18T06:44:22;-3.80;99.90
61841;DHT22;47773;53.174;6.614;2022-12-18T06:46:48;-3.80;99.90
61841;DHT22;47773;53.174;6.614;2022-12-18T06:49:14;-3.80;99.90
61841;DHT22;47773;53.174;6.614;2022-12-18T06:51:41;-3.80;99.90
61841;DHT22;47773;53.174;6.614;2022-12-18T06:54:07;-3.80;99.90
61841;DHT22;47773;53.174;6.614;2022-12-18T06:56:32;-3.80;99.90
61841;DHT22;47773;53.174;6.614;2022-12-18T06:58:58;-3.80;99.90
61841;DHT22;47773;53.174;6.614;2022-12-18T07:01:24;-3.90;99.90
61841;DHT22;47773;53.174;6.614;2022-12-18T07:03:54;-3.90;99.90
61841;DHT22;47773;53.174;6.614;2022-12-18T07:06:22;-3.90;99.90
61841;DHT22;47773;53.174;6.614;2022-12-18T07:08:48;-3.90;99.90
61841;DHT22;47773;53.174;6.614;2022-12-18T07:11:15;-3.90;99.90
61841;DHT22;47773;53.174;6.614;2022-12-18T07:13:41;-3.90;99.90
61841;DHT22;47773;53.174;6.614;2022-12-18T07:16:09;-3.90;99.90
61841;DHT22;47773;53.174;6.614;2022-12-18T07:18:35;-3.90;99.90
61841;DHT22;47773;53.174;6.614;2022-12-18T07:21:09;-3.90;99.90
61841;DHT22;47773;53.174;6.614;2022-12-18T07:23:35;-3.90;99.90
61841;DHT22;47773;53.174;6.614;2022-12-18T07:26:03;-3.90;99.90
61841;DHT22;47773;53.174;6.614;2022-12-18T07:28:29;-3.90;99.90
61841;DHT22;47773;53.174;6.614;2022-12-18T07:30:54;-3.90;99.90
61841;DHT22;47773;53.174;6.614;2022-12-18T07:33:20;-3.90;99.90
61841;DHT22;47773;53.174;6.614;2022-12-18T07:35:46;-3.90;99.90
61841;DHT22;47773;53.174;6.614;2022-12-18T07:38:11;-3.90;99.90
61841;DHT22;47773;53.174;6.614;2022-12-18T07:40:37;-3.90;99.90
61841;DHT22;47773;53.174;6.614;2022-12-18T07:43:02;-3.90;99.90
61841;DHT22;47773;53.174;6.614;2022-12-18T07:45:31;-3.90;99.90
61841;DHT22;47773;53.174;6.614;2022-12-18T07:47:56;-4.00;99.90
61841;DHT22;47773;53.174;6.614;2022-12-18T07:50:22;-4.00;99.90
61841;DHT22;47773;53.174;6.614;2022-12-18T07:52:49;-4.00;99.90
61841;DHT22;47773;53.174;6.614;2022-12-18T07:55:15;-4.10;99.90
61841;DHT22;47773;53.174;6.614;2022-12-18T07:57:40;-4.10;99.90
61841;DHT22;47773;53.174;6.614;2022-12-18T08:00:06;-4.10;99.90
61841;DHT22;47773;53.174;6.614;2022-12-18T08:02:32;-4.10;99.90
61841;DHT22;47773;53.174;6.614;2022-12-18T08:04:58;-4.10;99.90
61841;DHT22;47773;53.174;6.614;2022-12-18T08:07:24;-4.10;99.90
61841;DHT22;47773;53.174;6.614;2022-12-18T08:09:49;-4.00;99.90
61841;DHT22;47773;53.174;6.614;2022-12-18T08:12:15;-4.00;99.90
61841;DHT22;47773;53.174;6.614;2022-12-18T08:14:40;-4.00;99.90
61841;DHT22;47773;53.174;6.614;2022-12-18T08:17:06;-4.00;99.90
61841;DHT22;47773;53.174;6.614;2022-12-18T08:19:32;-4.00;99.90
61841;DHT22;47773;53.174;6.614;2022-12-18T08:21:57;-4.00;99.90
61841;DHT22;47773;53.174;6.614;2022-12-18T08:24:23;-3.90;99.90
61841;DHT22;47773;53.174;6.614;2022-12-18T08:26:48;-3.90;99.90
61841;DHT22;47773;53.174;6.614;2022-12-18T08:29:14;-4.00;99.90
61841;DHT22;47773;53.174;6.614;2022-12-18T08:31:40;-4.00;99.90
61841;DHT22;47773;53.174;6.614;2022-12-18T08:34:05;-4.00;99.90
61841;DHT22;47773;53.174;6.614;2022-12-18T08:36:31;-4.10;99.90
61841;DHT22;47773;53.174;6.614;2022-12-18T08:38:57;-4.10;99.90
61841;DHT22;47773;53.174;6.614;2022-12-18T08:41:22;-4.10;99.90
61841;DHT22;47773;53.174;6.614;2022-12-18T08:43:48;-4.10;99.90
61841;DHT22;47773;53.174;6.614;2022-12-18T08:46:36;-4.10;99.90
61841;DHT22;47773;53.174;6.614;2022-12-18T08:49:03;-4.10;99.90
61841;DHT22;47773;53.174;6.614;2022-12-18T08:51:29;-4.00;99.90
61841;DHT22;47773;53.174;6.614;2022-12-18T08:53:54;-4.00;99.90
61841;DHT22;47773;53.174;6.614;2022-12-18T08:56:20;-4.00;99.90
61841;DHT22;47773;53.174;6.614;2022-12-18T08:58:46;-3.90;99.90
61841;DHT22;47773;53.174;6.614;2022-12-18T09:01:12;-3.90;99.90
61841;DHT22;47773;53.174;6.614;2022-12-18T09:03:39;-3.80;99.90
61841;DHT22;47773;53.174;6.614;2022-12-18T09:06:05;-3.80;99.90
61841;DHT22;47773;53.174;6.614;2022-12-18T09:08:31;-3.70;99.90
61841;DHT22;47773;53.174;6.614;2022-12-18T09:10:59;-3.70;99.90
61841;DHT22;47773;53.174;6.614;2022-12-18T09:13:25;-3.60;99.90
61841;DHT22;47773;53.174;6.614;2022-12-18T09:15:53;-3.60;99.90
61841;DHT22;47773;53.174;6.614;2022-12-18T09:18:20;-3.60;99.90
61841;DHT22;47773;53.174;6.614;2022-12-18T09:20:47;-3.50;99.90
61841;DHT22;47773;53.174;6.614;2022-12-18T09:23:13;-3.50;99.90
61841;DHT22;47773;53.174;6.614;2022-12-18T09:25:39;-3.50;99.90
61841;DHT22;47773;53.174;6.614;2022-12-18T09:28:09;-3.40;99.90
61841;DHT22;47773;53.174;6.614;2022-12-18T09:30:38;-3.40;99.90
61841;DHT22;47773;53.174;6.614;2022-12-18T09:33:03;-3.30;99.90
61841;DHT22;47773;53.174;6.614;2022-12-18T09:35:29;-3.30;99.90
61841;DHT22;47773;53.174;6.614;2022-12-18T09:37:55;-3.30;99.90
61841;DHT22;47773;53.174;6.614;2022-12-18T09:40:23;-3.20;99.90
61841;DHT22;47773;53.174;6.614;2022-12-18T09:42:56;-3.20;99.90
61841;DHT22;47773;53.174;6.614;2022-12-18T09:45:23;-3.10;99.90
61841;DHT22;47773;53.174;6.614;2022-12-18T09:47:50;-3.10;99.90
61841;DHT22;47773;53.174;6.614;2022-12-18T09:50:34;-3.00;99.90
61841;DHT22;47773;53.174;6.614;2022-12-18T09:53:06;-2.90;99.90
61841;DHT22;47773;53.174;6.614;2022-12-18T09:55:42;-2.80;99.90
61841;DHT22;47773;53.174;6.614;2022-12-18T10:00:35;-2.80;99.90
61841;DHT22;47773;53.174;6.614;2022-12-18T10:03:09;-2.80;99.90
61841;DHT22;47773;53.174;6.614;2022-12-18T10:11:53;-2.80;99.90
61841;DHT22;47773;53.174;6.614;2022-12-18T10:14:32;-2.70;99.90
61841;DHT22;47773;53.174;6.614;2022-12-18T10:19:58;-2.70;99.90
61841;DHT22;47773;53.174;6.614;2022-12-18T10:22:43;-2.70;99.90
61841;DHT22;47773;53.174;6.614;2022-12-18T10:28:12;-2.60;99.90
61841;DHT22;47773;53.174;6.614;2022-12-18T10:30:39;-2.50;99.90
61841;DHT22;47773;53.174;6.614;2022-12-18T10:33:05;-2.40;99.90
61841;DHT22;47773;53.174;6.614;2022-12-18T10:35:31;-2.40;99.90
61841;DHT22;47773;53.174;6.614;2022-12-18T10:40:58;-2.40;99.90
61841;DHT22;47773;53.174;6.614;2022-12-18T10:43:32;-2.40;99.90
61841;DHT22;47773;53.174;6.614;2022-12-18T10:48:54;-2.40;99.90
61841;DHT22;47773;53.174;6.614;2022-12-18T10:54:17;-2.30;99.90
61841;DHT22;47773;53.174;6.614;2022-12-18T10:56:43;-2.30;99.90
61841;DHT22;47773;53.174;6.614;2022-12-18T10:59:12;-2.20;99.90
61841;DHT22;47773;53.174;6.614;2022-12-18T11:01:55;-2.20;99.90
61841;DHT22;47773;53.174;6.614;2022-12-18T11:04:30;-2.10;99.90
61841;DHT22;47773;53.174;6.614;2022-12-18T11:07:01;-2.10;99.90
61841;DHT22;47773;53.174;6.614;2022-12-18T11:09:39;-2.00;99.90
61841;DHT22;47773;53.174;6.614;2022-12-18T11:12:17;-2.00;99.90
61841;DHT22;47773;53.174;6.614;2022-12-18T11:14:47;-1.90;99.90
61841;DHT22;47773;53.174;6.614;2022-12-18T11:17:35;-1.90;99.90
61841;DHT22;47773;53.174;6.614;2022-12-18T11:23:01;-1.80;99.90
61841;DHT22;47773;53.174;6.614;2022-12-18T11:25:28;-1.80;99.90
61841;DHT22;47773;53.174;6.614;2022-12-18T11:28:00;-1.70;99.90
61841;DHT22;47773;53.174;6.614;2022-12-18T11:30:28;-1.70;99.90
61841;DHT22;47773;53.174;6.614;2022-12-18T11:33:10;-1.60;99.90
61841;DHT22;47773;53.174;6.614;2022-12-18T11:38:29;-1.60;99.90
61841;DHT22;47773;53.174;6.614;2022-12-18T11:41:45;-1.50;99.90
61841;DHT22;47773;53.174;6.614;2022-12-18T11:43:55;-1.50;99.90
61841;DHT22;47773;53.174;6.614;2022-12-18T11:46:32;-1.40;99.90
61841;DHT22;47773;53.174;6.614;2022-12-18T11:49:06;-1.30;99.90
61841;DHT22;47773;53.174;6.614;2022-12-18T11:51:41;-1.30;99.90
61841;DHT22;47773;53.174;6.614;2022-12-18T11:54:13;-1.30;99.90
61841;DHT22;47773;53.174;6.614;2022-12-18T12:00:22;-1.30;99.90
61841;DHT22;47773;53.174;6.614;2022-12-18T12:16:22;-1.30;99.90
61841;DHT22;47773;53.174;6.614;2022-12-18T12:21:40;-1.20;99.90
61841;DHT22;47773;53.174;6.614;2022-12-18T12:24:24;-1.20;99.90
61841;DHT22;47773;53.174;6.614;2022-12-18T12:27:26;-1.20;99.90
61841;DHT22;47773;53.174;6.614;2022-12-18T12:35:16;-1.10;99.90
61841;DHT22;47773;53.174;6.614;2022-12-18T12:40:24;-1.10;99.90
61841;DHT22;47773;53.174;6.614;2022-12-18T12:42:59;-1.10;99.90
61841;DHT22;47773;53.174;6.614;2022-12-18T12:46:25;-1.00;99.90
61841;DHT22;47773;53.174;6.614;2022-12-18T12:48:47;-1.00;99.90
61841;DHT22;47773;53.174;6.614;2022-12-18T12:51:21;-0.90;99.90
61841;DHT22;47773;53.174;6.614;2022-12-18T12:53:48;-0.90;99.90
61841;DHT22;47773;53.174;6.614;2022-12-18T12:56:16;-0.90;99.90
61841;DHT22;47773;53.174;6.614;2022-12-18T13:02:06;-0.80;99.90
61841;DHT22;47773;53.174;6.614;2022-12-18T13:04:49;-0.80;99.90
61841;DHT22;47773;53.174;6.614;2022-12-18T13:07:27;-0.80;99.90
61841;DHT22;47773;53.174;6.614;2022-12-18T13:10:24;-0.70;99.90
61841;DHT22;47773;53.174;6.614;2022-12-18T13:23:00;-0.60;99.90
61841;DHT22;47773;53.174;6.614;2022-12-18T13:40:55;-0.50;99.90
61841;DHT22;47773;53.174;6.614;2022-12-18T13:48:26;-0.50;99.90
61841;DHT22;47773;53.174;6.614;2022-12-18T13:50:56;-0.50;99.90
61841;DHT22;47773;53.174;6.614;2022-12-18T13:53:27;-0.50;99.90
61841;DHT22;47773;53.174;6.614;2022-12-18T13:55:54;-0.50;99.90
61841;DHT22;47773;53.174;6.614;2022-12-18T13:58:19;-0.50;99.90
61841;DHT22;47773;53.174;6.614;2022-12-18T14:00:45;-0.50;99.90
61841;DHT22;47773;53.174;6.614;2022-12-18T14:03:25;-0.50;99.90
61841;DHT22;47773;53.174;6.614;2022-12-18T14:05:56;-0.50;99.90
61841;DHT22;47773;53.174;6.614;2022-12-18T14:08:34;-0.50;99.90
61841;DHT22;47773;53.174;6.614;2022-12-18T14:11:01;-0.50;99.90
61841;DHT22;47773;53.174;6.614;2022-12-18T14:13:31;-0.50;99.90
61841;DHT22;47773;53.174;6.614;2022-12-18T14:16:01;-0.50;99.90
61841;DHT22;47773;53.174;6.614;2022-12-18T14:18:33;-0.50;99.90
61841;DHT22;47773;53.174;6.614;2022-12-18T14:21:03;-0.60;99.90
61841;DHT22;47773;53.174;6.614;2022-12-18T14:23:41;-0.60;99.90
61841;DHT22;47773;53.174;6.614;2022-12-18T14:26:28;-0.60;99.90
61841;DHT22;47773;53.174;6.614;2022-12-18T14:28:55;-0.50;99.90
61841;DHT22;47773;53.174;6.614;2022-12-18T14:31:24;-0.60;99.90
61841;DHT22;47773;53.174;6.614;2022-12-18T14:33:51;-0.60;99.90
61841;DHT22;47773;53.174;6.614;2022-12-18T14:36:23;-0.60;99.90
61841;DHT22;47773;53.174;6.614;2022-12-18T14:38:54;-0.60;99.90
61841;DHT22;47773;53.174;6.614;2022-12-18T14:41:21;-0.60;99.90
61841;DHT22;47773;53.174;6.614;2022-12-18T14:43:48;-0.60;99.90
61841;DHT22;47773;53.174;6.614;2022-12-18T14:48:49;-0.70;99.90
61841;DHT22;47773;53.174;6.614;2022-12-18T14:51:18;-0.70;99.90
61841;DHT22;47773;53.174;6.614;2022-12-18T14:53:46;-0.70;99.90
61841;DHT22;47773;53.174;6.614;2022-12-18T14:56:21;-0.70;99.90
61841;DHT22;47773;53.174;6.614;2022-12-18T15:01:25;-0.70;99.90
61841;DHT22;47773;53.174;6.614;2022-12-18T15:03:52;-0.70;99.90
61841;DHT22;47773;53.174;6.614;2022-12-18T15:06:34;-0.70;99.90
61841;DHT22;47773;53.174;6.614;2022-12-18T15:09:22;-0.70;99.90
61841;DHT22;47773;53.174;6.614;2022-12-18T15:11:48;-0.70;99.90
61841;DHT22;47773;53.174;6.614;2022-12-18T15:14:34;-0.80;99.90
61841;DHT22;47773;53.174;6.614;2022-12-18T15:17:03;-0.80;99.90
61841;DHT22;47773;53.174;6.614;2022-12-18T15:19:39;-0.80;99.90
61841;DHT22;47773;53.174;6.614;2022-12-18T15:22:27;-0.80;99.90
61841;DHT22;47773;53.174;6.614;2022-12-18T15:24:54;-0.80;99.90
61841;DHT22;47773;53.174;6.614;2022-12-18T15:27:31;-0.80;99.90
61841;DHT22;47773;53.174;6.614;2022-12-18T15:32:38;-0.90;99.90
61841;DHT22;47773;53.174;6.614;2022-12-18T15:37:37;-0.90;99.90
61841;DHT22;47773;53.174;6.614;2022-12-18T15:40:07;-0.90;99.90
61841;DHT22;47773;53.174;6.614;2022-12-18T15:42:33;-0.90;99.90
61841;DHT22;47773;53.174;6.614;2022-12-18T15:45:18;-0.90;99.90
61841;DHT22;47773;53.174;6.614;2022-12-18T15:47:43;-0.90;99.90
61841;DHT22;47773;53.174;6.614;2022-12-18T15:50:09;-0.90;99.90
61841;DHT22;47773;53.174;6.614;2022-12-18T15:52:46;-0.90;99.90
61841;DHT22;47773;53.174;6.614;2022-12-18T15:55:17;-0.90;99.90
61841;DHT22;47773;53.174;6.614;2022-12-18T15:58:02;-0.90;99.90
61841;DHT22;47773;53.174;6.614;2022-12-18T16:00:27;-0.90;99.90
61841;DHT22;47773;53.174;6.614;2022-12-18T16:02:53;-1.00;99.90
61841;DHT22;47773;53.174;6.614;2022-12-18T16:05:20;-0.90;99.90
61841;DHT22;47773;53.174;6.614;2022-12-18T16:07:47;-1.00;99.90
61841;DHT22;47773;53.174;6.614;2022-12-18T16:10:12;-0.90;99.90
61841;DHT22;47773;53.174;6.614;2022-12-18T16:12:38;-0.90;99.90
61841;DHT22;47773;53.174;6.614;2022-12-18T16:15:05;-1.00;99.90
61841;DHT22;47773;53.174;6.614;2022-12-18T16:17:31;-1.00;99.90
61841;DHT22;47773;53.174;6.614;2022-12-18T16:19:57;-1.00;99.90
61841;DHT22;47773;53.174;6.614;2022-12-18T16:22:25;-1.00;99.90
61841;DHT22;47773;53.174;6.614;2022-12-18T16:24:52;-1.00;99.90
61841;DHT22;47773;53.174;6.614;2022-12-18T16:27:19;-1.00;99.90
61841;DHT22;47773;53.174;6.614;2022-12-18T16:29:45;-1.00;99.90
61841;DHT22;47773;53.174;6.614;2022-12-18T16:32:14;-1.00;99.90
61841;DHT22;47773;53.174;6.614;2022-12-18T16:34:40;-1.00;99.90
61841;DHT22;47773;53.174;6.614;2022-12-18T16:37:08;-1.00;99.90
61841;DHT22;47773;53.174;6.614;2022-12-18T16:39:35;-1.00;99.90
61841;DHT22;47773;53.174;6.614;2022-12-18T16:42:16;-1.00;99.90
61841;DHT22;47773;53.174;6.614;2022-12-18T16:44:45;-1.00;99.90
61841;DHT22;47773;53.174;6.614;2022-12-18T16:47:11;-1.00;99.90
61841;DHT22;47773;53.174;6.614;2022-12-18T16:49:39;-1.00;99.90
61841;DHT22;47773;53.174;6.614;2022-12-18T16:52:07;-1.00;99.90
61841;DHT22;47773;53.174;6.614;2022-12-18T16:54:33;-1.00;99.90
61841;DHT22;47773;53.174;6.614;2022-12-18T16:57:01;-0.90;99.90
61841;DHT22;47773;53.174;6.614;2022-12-18T16:59:26;-0.90;99.90
61841;DHT22;47773;53.174;6.614;2022-12-18T17:01:52;-1.00;99.90
61841;DHT22;47773;53.174;6.614;2022-12-18T17:04:18;-1.00;99.90
61841;DHT22;47773;53.174;6.614;2022-12-18T17:06:44;-0.90;99.90
61841;DHT22;47773;53.174;6.614;2022-12-18T17:09:14;-0.90;99.90
61841;DHT22;47773;53.174;6.614;2022-12-18T17:11:40;-0.90;99.90
61841;DHT22;47773;53.174;6.614;2022-12-18T17:14:14;-0.90;99.90
61841;DHT22;47773;53.174;6.614;2022-12-18T17:16:40;-0.80;99.90
61841;DHT22;47773;53.174;6.614;2022-12-18T17:19:06;-0.80;99.90
61841;DHT22;47773;53.174;6.614;2022-12-18T17:21:32;-0.80;99.90
61841;DHT22;47773;53.174;6.614;2022-12-18T17:24:01;-0.80;99.90
61841;DHT22;47773;53.174;6.614;2022-12-18T17:26:27;-0.80;99.90
61841;DHT22;47773;53.174;6.614;2022-12-18T17:28:55;-0.70;99.90
61841;DHT22;47773;53.174;6.614;2022-12-18T17:31:23;-0.70;99.90
61841;DHT22;47773;53.174;6.614;2022-12-18T17:33:50;-0.70;99.90
61841;DHT22;47773;53.174;6.614;2022-12-18T17:36:17;-0.70;99.90
61841;DHT22;47773;53.174;6.614;2022-12-18T17:38:52;-0.70;99.90
61841;DHT22;47773;53.174;6.614;2022-12-18T17:41:18;-0.70;99.90
61841;DHT22;47773;53.174;6.614;2022-12-18T17:46:18;-0.60;99.90
61841;DHT22;47773;53.174;6.614;2022-12-18T17:48:44;-0.60;99.90
61841;DHT22;47773;53.174;6.614;2022-12-18T17:51:10;-0.60;99.90
61841;DHT22;47773;53.174;6.614;2022-12-18T17:53:37;-0.60;99.90